createdAt,value
2022-07-31T00:00:08.827Z,0.00
2022-07-31T00:01:08.809Z,0.00
2022-07-31T00:02:08.804Z,0.00
2022-07-31T00:03:08.892Z,0.00
2022-07-31T00:04:08.777Z,0.00
2022-07-31T00:05:08.773Z,0.00
2022-07-31T00:06:08.765Z,0.00
2022-07-31T00:07:08.753Z,0.00
2022-07-31T00:08:08.736Z,0.00
2022-07-31T00:09:45.551Z,0.00
2022-07-31T00:10:09.724Z,0.00
2022-07-31T00:11:08.703Z,0.00
2022-07-31T00:12:08.711Z,0.00
2022-07-31T00:13:08.702Z,0.00
2022-07-31T00:14:08.681Z,0.00
2022-07-31T00:15:08.668Z,0.00
2022-07-31T00:16:08.657Z,0.00
2022-07-31T00:17:08.657Z,0.00
2022-07-31T00:18:08.656Z,0.00
2022-07-31T00:19:08.620Z,0.00
2022-07-31T00:20:08.615Z,0.00
2022-07-31T00:21:08.603Z,0.00
2022-07-31T00:22:08.599Z,0.00
2022-07-31T00:23:08.584Z,0.00
2022-07-31T00:24:08.584Z,0.00
2022-07-31T00:25:08.557Z,0.00
2022-07-31T00:26:08.546Z,0.00
2022-07-31T00:27:08.534Z,0.00
2022-07-31T00:28:08.534Z,0.00
2022-07-31T00:29:08.515Z,0.00
2022-07-31T00:30:08.544Z,0.00
2022-07-31T00:31:08.501Z,0.00
2022-07-31T00:32:08.486Z,0.00
2022-07-31T00:33:08.482Z,0.00
2022-07-31T00:34:08.467Z,0.00
2022-07-31T00:35:08.510Z,0.00
2022-07-31T00:36:08.447Z,0.00
2022-07-31T00:37:08.439Z,0.00
2022-07-31T00:38:26.395Z,0.00
2022-07-31T00:39:09.412Z,0.00
2022-07-31T00:40:08.400Z,0.00
2022-07-31T00:41:08.396Z,0.00
2022-07-31T00:42:08.380Z,0.00
2022-07-31T00:43:08.374Z,0.00
2022-07-31T00:44:12.207Z,0.00
2022-07-31T00:45:08.357Z,0.00
2022-07-31T00:46:08.342Z,0.00
2022-07-31T00:47:09.335Z,0.00
2022-07-31T00:48:08.323Z,0.00
2022-07-31T00:49:08.397Z,0.00
2022-07-31T00:50:08.311Z,0.00
2022-07-31T00:51:08.292Z,0.00
2022-07-31T00:52:08.271Z,0.00
2022-07-31T00:53:08.277Z,0.00
2022-07-31T00:54:08.271Z,0.00
2022-07-31T00:55:08.258Z,0.00
2022-07-31T00:56:08.235Z,0.00
2022-07-31T00:57:08.229Z,0.00
2022-07-31T00:58:08.209Z,0.00
2022-07-31T00:59:08.221Z,0.00
2022-07-31T01:00:08.196Z,0.00
2022-07-31T01:01:08.220Z,0.00
2022-07-31T01:02:08.167Z,0.00
2022-07-31T01:03:08.155Z,0.00
2022-07-31T01:04:08.155Z,0.00
2022-07-31T01:05:09.146Z,0.00
2022-07-31T01:06:08.131Z,0.00
2022-07-31T01:07:08.121Z,0.00
2022-07-31T01:08:08.109Z,0.00
2022-07-31T01:09:08.102Z,0.00
2022-07-31T01:10:08.097Z,0.00
2022-07-31T01:11:08.087Z,0.00
2022-07-31T01:12:08.062Z,0.00
2022-07-31T01:13:08.048Z,0.00
2022-07-31T01:14:08.040Z,0.00
2022-07-31T01:15:08.058Z,0.00
2022-07-31T01:16:08.021Z,0.00
2022-07-31T01:17:08.032Z,0.00
2022-07-31T01:18:08.002Z,0.00
2022-07-31T01:19:07.990Z,0.00
2022-07-31T01:20:07.972Z,0.00
2022-07-31T01:21:07.973Z,0.00
2022-07-31T01:22:07.951Z,0.00
2022-07-31T01:23:08.952Z,0.00
2022-07-31T01:24:07.932Z,0.00
2022-07-31T01:25:07.927Z,0.00
2022-07-31T01:26:07.919Z,0.00
2022-07-31T01:27:07.902Z,0.00
2022-07-31T01:28:07.888Z,0.00
2022-07-31T01:29:07.885Z,0.00
2022-07-31T01:30:07.873Z,0.00
2022-07-31T01:31:25.929Z,0.00
2022-07-31T01:32:08.851Z,0.00
2022-07-31T01:33:07.833Z,0.00
2022-07-31T01:34:07.826Z,0.00
2022-07-31T01:35:07.821Z,0.00
2022-07-31T01:36:07.797Z,0.00
2022-07-31T01:37:07.800Z,0.00
2022-07-31T01:38:07.781Z,0.00
2022-07-31T01:39:07.766Z,0.00
2022-07-31T01:40:07.765Z,0.00
2022-07-31T01:41:07.760Z,0.00
2022-07-31T01:42:07.752Z,0.00
2022-07-31T01:43:07.727Z,0.00
2022-07-31T01:44:07.721Z,0.00
2022-07-31T01:45:08.700Z,0.00
2022-07-31T01:46:07.691Z,0.00
2022-07-31T01:47:07.704Z,0.00
2022-07-31T01:48:07.685Z,0.00
2022-07-31T01:49:07.729Z,0.00
2022-07-31T01:50:07.655Z,0.00
2022-07-31T01:51:07.650Z,0.00
2022-07-31T01:52:07.773Z,0.00
2022-07-31T01:53:07.635Z,0.00
2022-07-31T01:54:07.628Z,0.00
2022-07-31T01:55:07.590Z,0.00
2022-07-31T01:56:07.587Z,0.00
2022-07-31T01:57:07.573Z,0.00
2022-07-31T01:58:07.564Z,0.00
2022-07-31T01:59:20.174Z,0.00
2022-07-31T02:00:28.623Z,0.00
2022-07-31T02:01:08.605Z,0.00
2022-07-31T02:02:09.834Z,0.00
2022-07-31T02:03:09.775Z,0.00
2022-07-31T02:04:07.503Z,0.00
2022-07-31T02:05:07.511Z,0.00
2022-07-31T02:06:07.481Z,0.00
2022-07-31T02:07:07.462Z,0.00
2022-07-31T02:08:07.450Z,0.00
2022-07-31T02:09:07.455Z,0.00
2022-07-31T02:10:07.430Z,0.00
2022-07-31T02:11:08.464Z,0.00
2022-07-31T02:12:09.716Z,0.00
2022-07-31T02:13:07.404Z,0.00
2022-07-31T02:14:07.385Z,0.00
2022-07-31T02:15:07.375Z,0.00
2022-07-31T02:16:07.363Z,0.00
2022-07-31T02:17:07.371Z,0.00
2022-07-31T02:18:07.353Z,0.00
2022-07-31T02:19:07.337Z,0.00
2022-07-31T02:20:07.328Z,0.00
2022-07-31T02:21:07.317Z,0.00
2022-07-31T02:22:07.320Z,0.00
2022-07-31T02:23:07.317Z,0.00
2022-07-31T02:24:07.276Z,0.00
2022-07-31T02:25:07.285Z,0.00
2022-07-31T02:26:07.465Z,0.00
2022-07-31T02:27:07.243Z,0.00
2022-07-31T02:28:08.240Z,0.00
2022-07-31T02:29:07.236Z,0.00
2022-07-31T02:30:08.220Z,0.00
2022-07-31T02:31:07.206Z,0.00
2022-07-31T02:32:07.199Z,0.00
2022-07-31T02:33:07.186Z,0.00
2022-07-31T02:34:07.174Z,0.00
2022-07-31T02:35:07.171Z,0.00
2022-07-31T02:36:07.159Z,0.00
2022-07-31T02:37:07.132Z,0.00
2022-07-31T02:38:07.128Z,0.00
2022-07-31T02:39:08.115Z,0.00
2022-07-31T02:40:07.110Z,0.00
2022-07-31T02:41:07.098Z,0.00
2022-07-31T02:42:07.390Z,0.00
2022-07-31T02:43:07.322Z,4.00
2022-07-31T02:44:07.065Z,4.00
2022-07-31T02:45:07.050Z,4.00
2022-07-31T02:46:07.050Z,0.00
2022-07-31T02:47:07.040Z,0.00
2022-07-31T02:48:07.029Z,4.00
2022-07-31T02:49:07.092Z,4.00
2022-07-31T02:50:06.994Z,4.00
2022-07-31T02:51:06.987Z,8.00
2022-07-31T02:52:07.330Z,4.00
2022-07-31T02:53:06.971Z,8.00
2022-07-31T02:54:06.968Z,4.00
2022-07-31T02:55:06.952Z,8.00
2022-07-31T02:56:06.925Z,12.00
2022-07-31T02:57:06.914Z,12.00
2022-07-31T02:58:06.917Z,12.00
2022-07-31T02:59:06.919Z,12.00
2022-07-31T03:00:06.880Z,16.00
2022-07-31T03:01:06.947Z,16.00
2022-07-31T03:02:07.288Z,16.00
2022-07-31T03:03:06.845Z,24.00
2022-07-31T03:04:06.844Z,24.00
2022-07-31T03:05:06.834Z,28.00
2022-07-31T03:06:06.819Z,32.00
2022-07-31T03:07:06.804Z,36.00
2022-07-31T03:08:06.794Z,40.00
2022-07-31T03:09:06.791Z,44.00
2022-07-31T03:10:06.774Z,52.00
2022-07-31T03:11:06.777Z,56.00
2022-07-31T03:12:06.960Z,64.00
2022-07-31T03:13:06.744Z,72.00
2022-07-31T03:14:06.736Z,84.00
2022-07-31T03:15:06.720Z,88.00
2022-07-31T03:16:06.724Z,100.00
2022-07-31T03:17:06.707Z,112.00
2022-07-31T03:18:08.983Z,120.00
2022-07-31T03:19:06.672Z,132.00
2022-07-31T03:20:06.659Z,148.00
2022-07-31T03:21:06.654Z,164.00
2022-07-31T03:22:06.979Z,180.00
2022-07-31T03:23:06.641Z,196.00
2022-07-31T03:24:06.625Z,212.00
2022-07-31T03:25:06.606Z,232.00
2022-07-31T03:26:06.606Z,248.00
2022-07-31T03:27:06.600Z,268.00
2022-07-31T03:28:06.591Z,288.00
2022-07-31T03:29:06.581Z,308.00
2022-07-31T03:30:07.580Z,332.00
2022-07-31T03:31:06.547Z,360.00
2022-07-31T03:32:06.928Z,392.00
2022-07-31T03:33:06.536Z,424.00
2022-07-31T03:34:06.513Z,464.00
2022-07-31T03:35:06.506Z,508.00
2022-07-31T03:36:06.499Z,552.00
2022-07-31T03:37:06.479Z,592.00
2022-07-31T03:38:41.455Z,636.00
2022-07-31T03:39:07.452Z,688.00
2022-07-31T03:40:06.449Z,744.00
2022-07-31T03:41:06.441Z,800.00
2022-07-31T03:42:06.669Z,860.00
2022-07-31T03:43:07.418Z,916.00
2022-07-31T03:44:06.411Z,984.00
2022-07-31T03:45:06.394Z,1044.00
2022-07-31T03:46:06.376Z,1096.00
2022-07-31T03:47:06.373Z,1148.00
2022-07-31T03:48:06.360Z,1192.00
2022-07-31T03:49:06.385Z,1236.00
2022-07-31T03:50:06.344Z,1276.00
2022-07-31T03:51:06.324Z,1344.00
2022-07-31T03:52:11.487Z,1432.00
2022-07-31T03:53:07.323Z,1496.00
2022-07-31T03:54:06.298Z,1568.00
2022-07-31T03:55:06.299Z,1640.00
2022-07-31T03:56:06.266Z,1720.00
2022-07-31T03:57:06.271Z,1792.00
2022-07-31T03:58:06.248Z,1868.00
2022-07-31T03:59:06.253Z,1936.00
2022-07-31T04:00:07.420Z,2000.00
2022-07-31T04:01:08.401Z,2084.00
2022-07-31T04:02:06.884Z,2188.00
2022-07-31T04:03:06.202Z,2272.00
2022-07-31T04:04:06.190Z,2364.00
2022-07-31T04:05:09.915Z,2476.00
2022-07-31T04:06:06.186Z,2576.00
2022-07-31T04:07:06.159Z,2668.00
2022-07-31T04:08:06.149Z,2768.00
2022-07-31T04:09:15.356Z,2864.00
2022-07-31T04:10:07.129Z,2960.00
2022-07-31T04:11:06.123Z,3060.00
2022-07-31T04:12:06.508Z,3148.00
2022-07-31T04:13:06.089Z,3236.00
2022-07-31T04:14:06.076Z,3332.00
2022-07-31T04:15:06.073Z,3452.00
2022-07-31T04:16:06.067Z,3592.00
2022-07-31T04:17:06.060Z,3688.00
2022-07-31T04:18:06.051Z,3776.00
2022-07-31T04:19:06.034Z,3880.00
2022-07-31T04:20:06.040Z,3964.00
2022-07-31T04:21:06.012Z,4028.00
2022-07-31T04:22:06.355Z,4012.00
2022-07-31T04:23:07.212Z,4000.00
2022-07-31T04:24:05.978Z,4024.00
2022-07-31T04:25:05.974Z,4084.00
2022-07-31T04:26:05.968Z,4140.00
2022-07-31T04:27:10.712Z,4172.00
2022-07-31T04:28:06.936Z,4220.00
2022-07-31T04:29:05.955Z,4276.00
2022-07-31T04:30:05.914Z,4348.00
2022-07-31T04:31:05.905Z,4400.00
2022-07-31T04:32:06.353Z,4432.00
2022-07-31T04:33:05.884Z,4472.00
2022-07-31T04:34:05.867Z,4512.00
2022-07-31T04:35:05.876Z,4568.00
2022-07-31T04:36:05.852Z,4624.00
2022-07-31T04:37:06.842Z,4660.00
2022-07-31T04:38:05.824Z,4692.00
2022-07-31T04:39:05.821Z,4692.00
2022-07-31T04:40:05.821Z,4728.00
2022-07-31T04:41:05.835Z,4792.00
2022-07-31T04:42:10.690Z,4832.00
2022-07-31T04:43:06.775Z,4872.00
2022-07-31T04:44:05.760Z,4920.00
2022-07-31T04:45:05.750Z,4972.00
2022-07-31T04:46:17.130Z,5016.00
2022-07-31T04:47:06.752Z,5048.00
2022-07-31T04:48:05.725Z,5084.00
2022-07-31T04:49:05.791Z,5128.00
2022-07-31T04:50:05.706Z,5180.00
2022-07-31T04:51:05.685Z,5276.00
2022-07-31T04:52:06.170Z,5384.00
2022-07-31T04:53:05.677Z,5500.00
2022-07-31T04:54:05.664Z,5632.00
2022-07-31T04:55:05.652Z,6156.00
2022-07-31T04:56:05.639Z,7604.00
2022-07-31T04:57:05.624Z,8748.00
2022-07-31T04:58:05.630Z,9332.00
2022-07-31T04:59:05.646Z,9780.00
2022-07-31T05:00:05.603Z,9900.00
2022-07-31T05:01:05.582Z,10136.00
2022-07-31T05:02:05.959Z,9976.00
2022-07-31T05:03:05.562Z,10588.00
2022-07-31T05:04:05.553Z,11468.00
2022-07-31T05:05:05.560Z,11352.00
2022-07-31T05:06:05.541Z,10704.00
2022-07-31T05:07:05.528Z,10764.00
2022-07-31T05:08:05.520Z,10300.00
2022-07-31T05:09:08.583Z,7924.00
2022-07-31T05:10:05.505Z,6284.00
2022-07-31T05:11:05.494Z,6192.00
2022-07-31T05:12:05.910Z,6180.00
2022-07-31T05:13:05.465Z,6176.00
2022-07-31T05:14:05.453Z,6192.00
2022-07-31T05:15:05.454Z,6208.00
2022-07-31T05:16:05.439Z,6240.00
2022-07-31T05:17:05.452Z,6264.00
2022-07-31T05:18:05.415Z,6312.00
2022-07-31T05:19:05.399Z,6384.00
2022-07-31T05:20:06.389Z,6456.00
2022-07-31T05:21:05.381Z,6556.00
2022-07-31T05:22:05.852Z,6696.00
2022-07-31T05:23:06.666Z,6948.00
2022-07-31T05:24:05.355Z,8248.00
2022-07-31T05:25:05.335Z,12692.00
2022-07-31T05:26:05.336Z,17152.00
2022-07-31T05:27:05.323Z,17440.00
2022-07-31T05:28:08.910Z,17760.00
2022-07-31T05:29:05.309Z,18560.00
2022-07-31T05:30:05.283Z,18208.00
2022-07-31T05:31:05.275Z,17728.00
2022-07-31T05:32:05.292Z,18176.00
2022-07-31T05:33:05.260Z,19040.00
2022-07-31T05:34:05.242Z,19680.00
2022-07-31T05:35:05.239Z,19616.00
2022-07-31T05:36:05.218Z,19680.00
2022-07-31T05:37:05.215Z,19552.00
2022-07-31T05:38:05.214Z,19712.00
2022-07-31T05:39:06.206Z,20256.00
2022-07-31T05:40:05.177Z,20864.00
2022-07-31T05:41:05.183Z,20896.00
2022-07-31T05:42:05.686Z,21024.00
2022-07-31T05:43:05.154Z,16672.00
2022-07-31T05:44:05.162Z,9556.00
2022-07-31T05:45:05.135Z,6084.00
2022-07-31T05:46:05.121Z,5904.00
2022-07-31T05:47:05.113Z,5880.00
2022-07-31T05:48:05.104Z,5880.00
2022-07-31T05:49:05.136Z,5864.00
2022-07-31T05:50:05.082Z,5856.00
2022-07-31T05:51:05.844Z,5864.00
2022-07-31T05:52:05.603Z,5872.00
2022-07-31T05:53:05.053Z,5884.00
2022-07-31T05:54:05.031Z,5904.00
2022-07-31T05:55:05.040Z,5916.00
2022-07-31T05:56:05.016Z,5916.00
2022-07-31T05:57:05.008Z,5920.00
2022-07-31T05:58:04.999Z,5920.00
2022-07-31T05:59:04.997Z,5900.00
2022-07-31T06:00:04.987Z,5900.00
2022-07-31T06:01:05.024Z,5908.00
2022-07-31T06:02:05.368Z,5924.00
2022-07-31T06:03:04.938Z,5924.00
2022-07-31T06:04:04.931Z,5940.00
2022-07-31T06:05:04.938Z,5972.00
2022-07-31T06:06:04.916Z,6028.00
2022-07-31T06:07:04.904Z,6116.00
2022-07-31T06:08:04.887Z,6128.00
2022-07-31T06:09:05.142Z,6088.00
2022-07-31T06:10:04.870Z,6056.00
2022-07-31T06:11:04.863Z,6032.00
2022-07-31T06:12:05.327Z,6036.00
2022-07-31T06:13:04.847Z,6060.00
2022-07-31T06:14:04.829Z,6072.00
2022-07-31T06:15:04.809Z,6080.00
2022-07-31T06:16:04.805Z,6076.00
2022-07-31T06:17:04.799Z,6072.00
2022-07-31T06:18:04.787Z,6076.00
2022-07-31T06:19:04.770Z,6080.00
2022-07-31T06:20:04.763Z,6080.00
2022-07-31T06:21:04.749Z,6060.00
2022-07-31T06:22:05.064Z,6040.00
2022-07-31T06:23:19.839Z,6016.00
2022-07-31T06:24:05.715Z,6008.00
2022-07-31T06:25:04.713Z,6004.00
2022-07-31T06:26:04.854Z,6020.00
2022-07-31T06:27:04.684Z,6028.00
2022-07-31T06:28:05.234Z,6052.00
2022-07-31T06:29:05.692Z,6084.00
2022-07-31T06:30:04.650Z,6096.00
2022-07-31T06:31:04.640Z,6104.00
2022-07-31T06:32:05.143Z,6108.00
2022-07-31T06:33:08.066Z,6104.00
2022-07-31T06:34:04.623Z,6104.00
2022-07-31T06:35:04.612Z,6100.00
2022-07-31T06:36:04.602Z,6112.00
2022-07-31T06:37:04.582Z,6140.00
2022-07-31T06:38:04.565Z,6184.00
2022-07-31T06:39:04.570Z,6196.00
2022-07-31T06:40:04.553Z,6192.00
2022-07-31T06:41:04.555Z,6188.00
2022-07-31T06:42:04.899Z,6184.00
2022-07-31T06:43:06.903Z,6168.00
2022-07-31T06:44:04.520Z,6160.00
2022-07-31T06:45:04.493Z,6160.00
2022-07-31T06:46:04.488Z,6152.00
2022-07-31T06:47:04.501Z,6156.00
2022-07-31T06:48:04.488Z,6156.00
2022-07-31T06:49:08.559Z,6160.00
2022-07-31T06:50:04.442Z,6172.00
2022-07-31T06:51:28.256Z,6188.00
2022-07-31T06:52:06.015Z,6212.00
2022-07-31T06:53:04.423Z,6216.00
2022-07-31T06:54:04.416Z,6244.00
2022-07-31T06:55:04.418Z,6252.00
2022-07-31T06:56:04.381Z,6260.00
2022-07-31T06:57:04.378Z,6260.00
2022-07-31T06:58:04.373Z,6276.00
2022-07-31T06:59:04.359Z,6316.00
2022-07-31T07:00:07.275Z,6348.00
2022-07-31T07:01:05.409Z,6376.00
2022-07-31T07:02:04.621Z,6380.00
2022-07-31T07:03:04.310Z,6384.00
2022-07-31T07:04:04.308Z,6392.00
2022-07-31T07:05:05.891Z,6404.00
2022-07-31T07:06:04.290Z,6428.00
2022-07-31T07:07:04.277Z,6448.00
2022-07-31T07:08:04.265Z,6484.00
2022-07-31T07:09:04.250Z,6512.00
2022-07-31T07:10:04.267Z,6528.00
2022-07-31T07:11:04.235Z,6560.00
2022-07-31T07:12:04.339Z,6592.00
2022-07-31T07:13:04.231Z,6616.00
2022-07-31T07:14:04.205Z,6660.00
2022-07-31T07:15:04.197Z,6712.00
2022-07-31T07:16:04.186Z,6732.00
2022-07-31T07:17:04.198Z,6744.00
2022-07-31T07:18:04.164Z,6752.00
2022-07-31T07:19:04.147Z,6784.00
2022-07-31T07:20:04.142Z,6796.00
2022-07-31T07:21:04.132Z,6784.00
2022-07-31T07:22:04.380Z,6816.00
2022-07-31T07:23:04.146Z,6852.00
2022-07-31T07:24:04.103Z,6904.00
2022-07-31T07:25:04.090Z,6980.00
2022-07-31T07:26:04.081Z,7056.00
2022-07-31T07:27:04.065Z,7144.00
2022-07-31T07:28:04.065Z,7260.00
2022-07-31T07:29:04.057Z,7412.00
2022-07-31T07:30:04.033Z,7580.00
2022-07-31T07:31:04.027Z,7752.00
2022-07-31T07:32:04.343Z,7944.00
2022-07-31T07:33:04.035Z,8112.00
2022-07-31T07:34:03.997Z,8276.00
2022-07-31T07:35:04.005Z,8464.00
2022-07-31T07:36:03.967Z,8704.00
2022-07-31T07:37:03.955Z,8968.00
2022-07-31T07:38:03.947Z,9324.00
2022-07-31T07:39:03.955Z,9760.00
2022-07-31T07:40:04.344Z,10220.00
2022-07-31T07:41:03.928Z,10560.00
2022-07-31T07:42:04.143Z,10860.00
2022-07-31T07:43:03.911Z,11068.00
2022-07-31T07:44:03.939Z,11264.00
2022-07-31T07:45:07.856Z,11436.00
2022-07-31T07:46:03.863Z,11580.00
2022-07-31T07:47:03.861Z,11736.00
2022-07-31T07:48:06.134Z,11900.00
2022-07-31T07:49:03.874Z,11928.00
2022-07-31T07:50:03.840Z,11920.00
2022-07-31T07:51:03.823Z,11788.00
2022-07-31T07:52:03.808Z,11540.00
2022-07-31T07:53:03.797Z,11284.00
2022-07-31T07:54:03.785Z,10972.00
2022-07-31T07:55:03.775Z,10880.00
2022-07-31T07:56:03.768Z,10880.00
2022-07-31T07:57:03.754Z,11112.00
2022-07-31T07:58:03.736Z,11316.00
2022-07-31T07:59:03.733Z,11552.00
2022-07-31T08:00:03.730Z,11560.00
2022-07-31T08:01:03.788Z,12004.00
2022-07-31T08:02:04.054Z,12176.00
2022-07-31T08:03:49.253Z,12476.00
2022-07-31T08:04:04.687Z,12484.00
2022-07-31T08:05:03.682Z,12416.00
2022-07-31T08:06:03.664Z,12164.00
2022-07-31T08:07:03.642Z,11756.00
2022-07-31T08:08:03.662Z,11284.00
2022-07-31T08:09:03.628Z,11012.00
2022-07-31T08:10:03.615Z,11068.00
2022-07-31T08:11:03.605Z,10752.00
2022-07-31T08:12:03.916Z,10444.00
2022-07-31T08:13:03.586Z,10140.00
2022-07-31T08:14:03.578Z,9544.00
2022-07-31T08:15:03.566Z,8920.00
2022-07-31T08:16:03.547Z,8708.00
2022-07-31T08:17:03.565Z,8612.00
2022-07-31T08:18:03.541Z,8856.00
2022-07-31T08:19:03.529Z,8992.00
2022-07-31T08:20:03.515Z,9156.00
2022-07-31T08:21:03.502Z,9104.00
2022-07-31T08:22:03.745Z,9020.00
2022-07-31T08:23:03.495Z,8972.00
2022-07-31T08:24:03.475Z,8824.00
2022-07-31T08:25:05.338Z,8680.00
2022-07-31T08:26:03.451Z,8552.00
2022-07-31T08:27:03.437Z,8404.00
2022-07-31T08:28:04.423Z,8340.00
2022-07-31T08:29:05.137Z,8440.00
2022-07-31T08:30:03.418Z,8732.00
2022-07-31T08:31:03.392Z,9096.00
2022-07-31T08:32:03.738Z,9380.00
2022-07-31T08:33:03.378Z,9560.00
2022-07-31T08:34:03.359Z,9588.00
2022-07-31T08:35:03.377Z,9564.00
2022-07-31T08:36:03.347Z,9508.00
2022-07-31T08:38:01.361Z,9372.00
2022-07-31T08:38:04.968Z,9200.00
2022-07-31T08:39:03.305Z,8940.00
2022-07-31T08:40:03.297Z,8560.00
2022-07-31T08:41:03.307Z,8080.00
2022-07-31T08:42:03.704Z,7628.00
2022-07-31T08:43:10.621Z,7200.00
2022-07-31T08:44:04.717Z,6820.00
2022-07-31T08:45:03.243Z,6528.00
2022-07-31T08:46:03.291Z,6408.00
2022-07-31T08:47:03.248Z,6244.00
2022-07-31T08:48:03.215Z,6204.00
2022-07-31T08:49:03.301Z,6292.00
2022-07-31T08:50:03.191Z,6384.00
2022-07-31T08:51:03.181Z,6504.00
2022-07-31T08:52:03.390Z,6500.00
2022-07-31T08:53:03.185Z,6480.00
2022-07-31T08:54:03.158Z,6464.00
2022-07-31T08:55:03.141Z,6456.00
2022-07-31T08:56:03.128Z,6448.00
2022-07-31T08:57:03.479Z,6436.00
2022-07-31T08:58:03.112Z,6432.00
2022-07-31T08:59:03.128Z,6452.00
2022-07-31T09:00:03.097Z,6452.00
2022-07-31T09:01:03.163Z,6460.00
2022-07-31T09:02:03.301Z,6464.00
2022-07-31T09:03:03.056Z,6480.00
2022-07-31T09:04:03.044Z,6508.00
2022-07-31T09:05:03.052Z,6508.00
2022-07-31T09:06:03.043Z,6508.00
2022-07-31T09:07:03.517Z,6512.00
2022-07-31T09:08:03.010Z,6512.00
2022-07-31T09:09:03.991Z,6520.00
2022-07-31T09:10:02.980Z,6500.00
2022-07-31T09:11:02.984Z,6504.00
2022-07-31T09:12:02.990Z,6512.00
2022-07-31T09:13:02.953Z,6528.00
2022-07-31T09:14:03.445Z,6540.00
2022-07-31T09:15:02.939Z,6552.00
2022-07-31T09:16:02.926Z,6560.00
2022-07-31T09:17:03.190Z,6568.00
2022-07-31T09:18:02.918Z,6560.00
2022-07-31T09:19:02.894Z,6568.00
2022-07-31T09:20:03.883Z,6596.00
2022-07-31T09:21:02.873Z,6624.00
2022-07-31T09:22:05.230Z,6624.00
2022-07-31T09:23:03.874Z,6628.00
2022-07-31T09:24:02.846Z,6612.00
2022-07-31T09:25:02.835Z,6620.00
2022-07-31T09:26:02.817Z,6616.00
2022-07-31T09:27:03.107Z,6592.00
2022-07-31T09:28:02.801Z,6580.00
2022-07-31T09:29:02.816Z,6584.00
2022-07-31T09:30:02.775Z,6560.00
2022-07-31T09:31:02.774Z,6580.00
2022-07-31T09:32:02.758Z,6576.00
2022-07-31T09:33:02.750Z,6564.00
2022-07-31T09:34:02.729Z,6568.00
2022-07-31T09:35:02.760Z,6572.00
2022-07-31T09:36:02.716Z,6588.00
2022-07-31T09:37:03.032Z,6628.00
2022-07-31T09:38:04.363Z,6636.00
2022-07-31T09:39:04.162Z,6600.00
2022-07-31T09:40:02.675Z,6572.00
2022-07-31T09:41:02.676Z,6624.00
2022-07-31T09:42:16.434Z,6756.00
2022-07-31T09:43:03.654Z,6736.00
2022-07-31T09:44:02.629Z,6656.00
2022-07-31T09:45:03.633Z,6616.00
2022-07-31T09:46:02.614Z,6620.00
2022-07-31T09:47:02.903Z,6616.00
2022-07-31T09:48:02.597Z,6620.00
2022-07-31T09:49:02.627Z,6576.00
2022-07-31T09:50:02.567Z,6520.00
2022-07-31T09:51:02.570Z,6520.00
2022-07-31T09:52:02.560Z,6580.00
2022-07-31T09:53:02.544Z,6704.00
2022-07-31T09:54:02.529Z,6912.00
2022-07-31T09:55:02.520Z,7276.00
2022-07-31T09:56:03.511Z,7628.00
2022-07-31T09:57:02.915Z,7580.00
2022-07-31T09:58:02.482Z,7316.00
2022-07-31T09:59:02.478Z,7124.00
2022-07-31T10:00:02.460Z,7112.00
2022-07-31T10:01:02.541Z,6984.00
2022-07-31T10:02:02.466Z,6928.00
2022-07-31T10:03:02.435Z,7040.00
2022-07-31T10:04:02.421Z,7472.00
2022-07-31T10:05:02.428Z,8044.00
2022-07-31T10:06:02.406Z,8048.00
2022-07-31T10:07:02.835Z,7904.00
2022-07-31T10:08:02.390Z,7892.00
2022-07-31T10:09:02.369Z,8144.00
2022-07-31T10:10:02.358Z,8504.00
2022-07-31T10:11:02.367Z,8872.00
2022-07-31T10:12:02.349Z,9056.00
2022-07-31T10:13:02.363Z,8560.00
2022-07-31T10:14:02.318Z,8320.00
2022-07-31T10:15:02.315Z,8172.00
2022-07-31T10:16:02.302Z,8116.00
2022-07-31T10:17:02.675Z,8036.00
2022-07-31T10:18:02.276Z,8128.00
2022-07-31T10:19:02.280Z,8356.00
2022-07-31T10:20:02.265Z,8528.00
2022-07-31T10:21:02.253Z,8564.00
2022-07-31T10:22:02.251Z,8812.00
2022-07-31T10:23:02.240Z,8724.00
2022-07-31T10:24:02.237Z,8812.00
2022-07-31T10:25:02.206Z,9012.00
2022-07-31T10:26:02.196Z,9376.00
2022-07-31T10:27:10.961Z,10144.00
2022-07-31T10:28:03.179Z,10800.00
2022-07-31T10:29:02.177Z,11844.00
2022-07-31T10:30:02.165Z,12856.00
2022-07-31T10:31:02.137Z,13528.00
2022-07-31T10:32:02.128Z,13456.00
2022-07-31T10:33:02.124Z,13196.00
2022-07-31T10:34:02.112Z,12420.00
2022-07-31T10:35:02.121Z,11760.00
2022-07-31T10:36:02.087Z,11664.00
2022-07-31T10:37:02.655Z,12080.00
2022-07-31T10:38:02.118Z,12604.00
2022-07-31T10:39:02.062Z,12748.00
2022-07-31T10:40:02.058Z,12544.00
2022-07-31T10:41:02.057Z,12088.00
2022-07-31T10:42:02.033Z,12136.00
2022-07-31T10:43:03.046Z,12224.00
2022-07-31T10:44:02.004Z,12168.00
2022-07-31T10:45:02.002Z,11900.00
2022-07-31T10:46:01.992Z,12156.00
2022-07-31T10:47:02.499Z,12604.00
2022-07-31T10:48:01.977Z,13132.00
2022-07-31T10:49:08.506Z,13488.00
2022-07-31T10:50:02.951Z,13988.00
2022-07-31T10:51:01.932Z,14428.00
2022-07-31T10:52:01.936Z,14836.00
2022-07-31T10:53:01.918Z,14600.00
2022-07-31T10:54:01.912Z,14832.00
2022-07-31T10:55:01.906Z,14464.00
2022-07-31T10:56:01.888Z,14252.00
2022-07-31T10:57:02.383Z,14024.00
2022-07-31T10:58:01.868Z,13404.00
2022-07-31T10:59:01.863Z,12844.00
2022-07-31T11:00:01.840Z,12784.00
2022-07-31T11:01:01.829Z,12628.00
2022-07-31T11:02:01.887Z,13016.00
2022-07-31T11:03:01.831Z,13264.00
2022-07-31T11:04:02.829Z,13368.00
2022-07-31T11:05:01.811Z,13340.00
2022-07-31T11:06:03.197Z,13444.00
2022-07-31T11:07:01.923Z,13680.00
2022-07-31T11:08:01.763Z,13600.00
2022-07-31T11:09:01.761Z,13056.00
2022-07-31T11:10:01.747Z,13148.00
2022-07-31T11:11:03.437Z,13488.00
2022-07-31T11:12:01.735Z,13612.00
2022-07-31T11:13:01.716Z,12848.00
2022-07-31T11:14:01.707Z,11980.00
2022-07-31T11:15:01.697Z,10868.00
2022-07-31T11:16:01.690Z,10856.00
2022-07-31T11:17:02.000Z,10688.00
2022-07-31T11:18:20.838Z,10464.00
2022-07-31T11:19:02.658Z,10048.00
2022-07-31T11:20:01.647Z,9688.00
2022-07-31T11:21:09.463Z,9392.00
2022-07-31T11:22:30.958Z,9388.00
2022-07-31T11:23:02.621Z,9532.00
2022-07-31T11:24:04.302Z,9764.00
2022-07-31T11:25:02.595Z,10016.00
2022-07-31T11:26:01.585Z,10316.00
2022-07-31T11:27:01.722Z,10472.00
2022-07-31T11:28:01.575Z,10632.00
2022-07-31T11:30:00.250Z,10764.00
2022-07-31T11:30:06.694Z,10756.00
2022-07-31T11:31:02.534Z,10700.00
2022-07-31T11:32:01.516Z,10660.00
2022-07-31T11:33:01.506Z,10632.00
2022-07-31T11:34:01.501Z,10604.00
2022-07-31T11:35:01.510Z,10580.00
2022-07-31T11:36:01.491Z,10464.00
2022-07-31T11:37:01.464Z,10376.00
2022-07-31T11:38:01.454Z,10384.00
2022-07-31T11:39:01.443Z,10476.00
2022-07-31T11:40:01.440Z,10352.00
2022-07-31T11:41:01.452Z,10324.00
2022-07-31T11:42:01.414Z,10024.00
2022-07-31T11:44:02.393Z,10320.00
2022-07-31T11:45:01.384Z,10372.00
2022-07-31T11:46:02.382Z,10204.00
2022-07-31T11:47:01.627Z,10000.00
2022-07-31T11:48:12.762Z,9912.00
2022-07-31T11:49:02.399Z,10072.00
2022-07-31T11:50:01.411Z,9888.00
2022-07-31T11:51:01.329Z,9712.00
2022-07-31T11:52:01.320Z,9588.00
2022-07-31T11:53:01.341Z,9364.00
2022-07-31T11:54:01.299Z,9052.00
2022-07-31T11:55:05.409Z,9012.00
2022-07-31T11:56:02.279Z,9100.00
2022-07-31T11:57:08.876Z,9152.00
2022-07-31T11:58:09.949Z,9268.00
2022-07-31T11:59:01.289Z,9680.00
2022-07-31T12:00:26.288Z,10136.00
2022-07-31T12:01:02.260Z,10640.00
2022-07-31T12:02:01.223Z,10972.00
2022-07-31T12:03:01.266Z,11340.00
2022-07-31T12:04:08.277Z,11588.00
2022-07-31T12:05:02.194Z,11712.00
2022-07-31T12:06:01.222Z,11680.00
2022-07-31T12:07:01.291Z,12024.00
2022-07-31T12:08:01.654Z,12596.00
2022-07-31T12:09:01.171Z,13376.00
2022-07-31T12:10:03.439Z,14640.00
2022-07-31T12:11:01.134Z,15512.00
2022-07-31T12:12:01.115Z,14948.00
2022-07-31T12:13:01.099Z,14364.00
2022-07-31T12:14:01.101Z,14308.00
2022-07-31T12:15:01.093Z,14760.00
2022-07-31T12:16:01.077Z,14736.00
2022-07-31T12:17:01.196Z,14640.00
2022-07-31T12:18:01.051Z,14264.00
2022-07-31T12:19:01.069Z,14048.00
2022-07-31T12:20:01.030Z,13720.00